Terminal Aerodrome Forecast
Issued by NWS

Home | Current Version | Previous Version | Graphics & Text | Print | Product List | Glossary On
Versions: 1 2 3 4 5 6 7 8 9 10 11 12 13 14 15 16 17 18 19 20 21
000
FTUS42 KMHX 222116 AAA
TAFISO
TAF AMD
KISO 222116Z 2221/2318 22008KT P6SM SCT050
     FM230800 VRB03KT 2SM BR BKN007
     FM231300 VRB03KT 3SM BR BKN020
     FM231400 21004KT P6SM BKN035
      AMD LTD TO CLD VIS AND WIND=

USA.gov is the U.S. government's official web portal to all federal, state and local government web resources and services.